Time;durP1;ratioP1;P1;durP2;ratioP2;P2;SDS_P1;SDS_P2;PMS_P1;PMS_P2;Temp;Humidity;BMP_temperature;BMP_pressure;BME280_temperature;BME280_humidity;BME280_pressure;Samples;Min_cycle;Max_cycle;Signal;HPM_P1;HPM_P2
2021/07/14 00:00:32;;;;;;;37.20;33.25;;;;;;;;;;2063057;28;20188;-59
2021/07/14 00:01:33;;;;;;;37.55;33.55;;;;;;;;;;2064742;28;20180;-59
2021/07/14 00:02:34;;;;;;;37.90;33.90;;;;;;;;;;2058873;28;20757;-59
2021/07/14 00:03:34;;;;;;;37.15;33.30;;;;;;;;;;2071620;28;20696;-60
2021/07/14 00:04:37;;;;;;;40.50;36.00;;;;;;;;;;2072715;28;20216;-58
2021/07/14 00:05:38;;;;;;;38.28;34.38;;;;;;;;;;2058554;28;20237;-60
2021/07/14 00:06:38;;;;;;;37.33;33.30;;;;;;;;;;2064929;28;20233;-60
2021/07/14 00:07:39;;;;;;;38.75;34.53;;;;;;;;;;2058249;28;20180;-60
2021/07/14 00:08:39;;;;;;;38.50;34.47;;;;;;;;;;2060503;28;20178;-60
2021/07/14 00:09:40;;;;;;;40.03;35.50;;;;;;;;;;2055649;28;20690;-60
2021/07/14 00:10:40;;;;;;;35.97;32.38;;;;;;;;;;2064733;28;20192;-59
2021/07/14 00:11:44;;;;;;;35.75;31.88;;;;;;;;;;2064005;28;20186;-58
2021/07/14 00:13:08;;;;;;;35.60;31.92;;;;;;;;;;2064999;28;20201;-60
2021/07/14 00:23:03;;;;;;;37.30;33.28;;;;;;;;;;2060204;28;20185;-59
2021/07/14 00:24:05;;;;;;;37.28;33.28;;;;;;;;;;2061422;28;20192;-60
2021/07/14 00:25:06;;;;;;;36.90;32.97;;;;;;;;;;2062779;28;20166;-59
2021/07/14 00:26:07;;;;;;;37.42;33.38;;;;;;;;;;2064981;28;20174;-59
2021/07/14 00:27:09;;;;;;;38.78;34.67;;;;;;;;;;2056981;28;20671;-58
2021/07/14 00:28:09;;;;;;;36.05;32.15;;;;;;;;;;2064819;28;20177;-59
2021/07/14 00:29:11;;;;;;;37.30;33.33;;;;;;;;;;2065197;28;20161;-59
2021/07/14 00:30:15;;;;;;;37.65;33.72;;;;;;;;;;2064868;28;20184;-59
2021/07/14 00:31:16;;;;;;;38.30;34.20;;;;;;;;;;2060982;28;20167;-57
2021/07/14 00:32:17;;;;;;;40.83;36.22;;;;;;;;;;2060989;28;20190;-60
2021/07/14 00:33:17;;;;;;;40.67;36.38;;;;;;;;;;2061167;28;20180;-59
2021/07/14 00:34:17;;;;;;;40.83;36.53;;;;;;;;;;2057783;28;20193;-61
2021/07/14 00:35:18;;;;;;;40.33;35.90;;;;;;;;;;2057997;28;20197;-58
2021/07/14 00:36:18;;;;;;;40.00;35.80;;;;;;;;;;2065330;28;20205;-59
2021/07/14 00:37:18;;;;;;;40.15;35.78;;;;;;;;;;2064307;28;20197;-58
2021/07/14 00:38:19;;;;;;;39.03;34.92;;;;;;;;;;2065388;28;20181;-59
2021/07/14 00:39:19;;;;;;;42.13;37.67;;;;;;;;;;2059829;28;20594;-58
2021/07/14 00:40:19;;;;;;;43.30;37.53;;;;;;;;;;2057175;28;20224;-58
2021/07/14 00:41:20;;;;;;;42.58;37.95;;;;;;;;;;2057434;28;20257;-62
2021/07/14 00:42:20;;;;;;;46.78;37.80;;;;;;;;;;2057243;28;20206;-60
2021/07/14 00:43:21;;;;;;;41.13;36.80;;;;;;;;;;2061059;28;20182;-60
2021/07/14 00:44:21;;;;;;;41.63;37.22;;;;;;;;;;2061801;28;20292;-60
2021/07/14 00:45:21;;;;;;;38.55;34.40;;;;;;;;;;2059853;28;20823;-60
2021/07/14 00:46:23;;;;;;;43.67;36.83;;;;;;;;;;2060547;28;20274;-60
2021/07/14 00:47:29;;;;;;;42.22;37.10;;;;;;;;;;2064522;28;20186;-60
2021/07/14 00:48:29;;;;;;;46.03;39.50;;;;;;;;;;2056699;28;20185;-60
2021/07/14 00:49:30;;;;;;;45.28;38.17;;;;;;;;;;2058099;28;20332;-59
2021/07/14 00:50:30;;;;;;;43.47;38.78;;;;;;;;;;2060777;28;20631;-60
2021/07/14 00:51:30;;;;;;;45.15;39.50;;;;;;;;;;2058036;28;20249;-60
2021/07/14 00:52:31;;;;;;;43.35;36.67;;;;;;;;;;2063082;28;20243;-60
2021/07/14 00:53:31;;;;;;;43.88;37.85;;;;;;;;;;2065117;28;20546;-60
2021/07/14 00:54:31;;;;;;;43.80;38.95;;;;;;;;;;2064172;28;20250;-60
2021/07/14 00:55:32;;;;;;;45.20;38.50;;;;;;;;;;2058472;28;20174;-60
2021/07/14 00:56:32;;;;;;;40.53;36.00;;;;;;;;;;2063164;28;20220;-60
2021/07/14 00:57:33;;;;;;;42.55;38.08;;;;;;;;;;2058420;28;20178;-60
2021/07/14 00:58:33;;;;;;;42.20;37.55;;;;;;;;;;2056511;28;20189;-60
2021/07/14 00:59:33;;;;;;;42.63;35.88;;;;;;;;;;2063267;28;20195;-60
2021/07/14 01:00:33;;;;;;;42.92;36.17;;;;;;;;;;2063054;28;20174;-60
2021/07/14 01:01:34;;;;;;;40.88;35.75;;;;;;;;;;2056489;28;20680;-59
2021/07/14 01:02:34;;;;;;;42.63;37.20;;;;;;;;;;2056580;28;20205;-60
2021/07/14 01:03:38;;;;;;;39.10;34.90;;;;;;;;;;2059908;28;20625;-60
2021/07/14 01:04:40;;;;;;;42.55;37.83;;;;;;;;;;2063483;28;20288;-61
2021/07/14 01:05:44;;;;;;;40.20;35.85;;;;;;;;;;2064636;28;20172;-60
2021/07/14 01:07:02;;;;;;;40.03;35.72;;;;;;;;;;2057408;28;20186;-61
2021/07/14 01:08:07;;;;;;;42.42;37.80;;;;;;;;;;2059034;28;20807;-61
2021/07/14 01:09:08;;;;;;;43.03;38.10;;;;;;;;;;2059850;28;20224;-60
2021/07/14 01:10:14;;;;;;;43.00;38.30;;;;;;;;;;2061577;28;20253;-59
2021/07/14 01:11:16;;;;;;;40.63;36.22;;;;;;;;;;2058920;28;20530;-60
2021/07/14 01:12:20;;;;;;;40.95;36.55;;;;;;;;;;2061302;28;20177;-60
2021/07/14 01:13:31;;;;;;;40.58;36.15;;;;;;;;;;2062879;28;20177;-58
2021/07/14 01:14:40;;;;;;;43.58;38.03;;;;;;;;;;2064616;28;20182;-60
2021/07/14 01:15:46;;;;;;;44.28;37.58;;;;;;;;;;2064967;28;20170;-60
2021/07/14 01:16:47;;;;;;;40.67;35.75;;;;;;;;;;2057906;28;20183;-60
2021/07/14 01:17:51;;;;;;;43.22;36.85;;;;;;;;;;2063875;28;20181;-60
2021/07/14 01:18:55;;;;;;;46.75;36.85;;;;;;;;;;2063616;28;20184;-59
2021/07/14 01:20:03;;;;;;;46.42;38.90;;;;;;;;;;2057341;28;20527;-60
2021/07/14 01:21:07;;;;;;;44.88;38.83;;;;;;;;;;2058450;28;20155;-60
2021/07/14 01:22:28;;;;;;;47.85;40.55;;;;;;;;;;2064234;28;20208;-60
2021/07/14 01:23:40;;;;;;;43.35;38.00;;;;;;;;;;2062526;28;20177;-61
2021/07/14 01:24:46;;;;;;;46.78;37.63;;;;;;;;;;2063806;28;20660;-60
2021/07/14 01:25:58;;;;;;;49.28;39.28;;;;;;;;;;2064005;28;20699;-58
2021/07/14 01:27:04;;;;;;;48.53;39.13;;;;;;;;;;2064687;28;20554;-61
2021/07/14 01:28:04;;;;;;;46.10;38.33;;;;;;;;;;2062052;28;20261;-60
2021/07/14 01:29:08;;;;;;;46.75;39.72;;;;;;;;;;2060037;28;20662;-60
2021/07/14 01:30:15;;;;;;;48.95;39.20;;;;;;;;;;2063844;28;20181;-61
2021/07/14 01:31:18;;;;;;;44.47;38.92;;;;;;;;;;2056710;28;20167;-60
2021/07/14 01:32:20;;;;;;;48.88;39.72;;;;;;;;;;2061339;28;20625;-60
2021/07/14 01:33:25;;;;;;;49.55;41.05;;;;;;;;;;2059957;28;20166;-60
2021/07/14 01:34:26;;;;;;;47.70;38.72;;;;;;;;;;2059778;28;20185;-59
2021/07/14 01:35:30;;;;;;;49.45;40.40;;;;;;;;;;2072287;28;20768;-60
2021/07/14 01:36:31;;;;;;;50.47;40.42;;;;;;;;;;2071452;28;20181;-61
2021/07/14 01:37:32;;;;;;;51.40;42.35;;;;;;;;;;2064429;28;20201;-59
2021/07/14 01:38:35;;;;;;;57.15;42.25;;;;;;;;;;2062044;28;20166;-61
2021/07/14 01:39:35;;;;;;;47.55;39.42;;;;;;;;;;2063646;28;20178;-61
2021/07/14 01:40:37;;;;;;;49.63;39.33;;;;;;;;;;2058919;28;20209;-60
2021/07/14 01:41:39;;;;;;;44.40;36.00;;;;;;;;;;2056782;28;20678;-60
2021/07/14 01:42:40;;;;;;;46.50;39.30;;;;;;;;;;2064002;28;20189;-61
2021/07/14 01:43:41;;;;;;;51.38;41.38;;;;;;;;;;2072533;28;20621;-57
2021/07/14 01:44:42;;;;;;;50.38;40.40;;;;;;;;;;2072172;28;20255;-60
2021/07/14 01:45:42;;;;;;;49.80;41.13;;;;;;;;;;2057666;28;20208;-59
2021/07/14 01:46:43;;;;;;;51.38;40.95;;;;;;;;;;2057383;28;20186;-60
2021/07/14 01:47:43;;;;;;;46.75;38.50;;;;;;;;;;2064423;28;20264;-59
2021/07/14 01:48:45;;;;;;;49.55;41.67;;;;;;;;;;2052800;28;20514;-60
2021/07/14 01:49:46;;;;;;;54.90;43.38;;;;;;;;;;2064570;28;20174;-60
2021/07/14 01:50:47;;;;;;;49.42;41.53;;;;;;;;;;2064538;28;20561;-62
2021/07/14 01:51:48;;;;;;;53.95;42.47;;;;;;;;;;2063152;28;20170;-57
2021/07/14 01:52:51;;;;;;;52.40;42.97;;;;;;;;;;2048773;28;20250;-60
2021/07/14 01:53:51;;;;;;;59.47;44.28;;;;;;;;;;2060494;28;20314;-60
2021/07/14 01:54:53;;;;;;;53.00;42.63;;;;;;;;;;2064950;28;20249;-60
2021/07/14 01:55:54;;;;;;;57.17;44.22;;;;;;;;;;2066116;28;20177;-60
2021/07/14 01:56:56;;;;;;;57.35;43.50;;;;;;;;;;2063652;28;20548;-59
2021/07/14 01:57:56;;;;;;;54.58;42.10;;;;;;;;;;2058812;28;20209;-60
2021/07/14 01:58:57;;;;;;;51.08;41.00;;;;;;;;;;2062685;28;20169;-58
2021/07/14 01:59:58;;;;;;;56.40;44.65;;;;;;;;;;2064435;28;20177;-59
2021/07/14 02:00:58;;;;;;;56.67;45.47;;;;;;;;;;2070494;28;20327;-61
2021/07/14 02:02:01;;;;;;;56.58;42.58;;;;;;;;;;2063933;28;20234;-60
2021/07/14 02:05:23;;;;;;;54.85;41.08;;;;;;;;;;2070827;28;20183;-53
2021/07/14 02:06:24;;;;;;;57.28;44.22;;;;;;;;;;2072034;28;20184;-54
2021/07/14 02:07:28;;;;;;;51.65;39.88;;;;;;;;;;2071183;28;20264;-52
2021/07/14 02:08:28;;;;;;;55.15;42.40;;;;;;;;;;2071888;28;20187;-56
2021/07/14 02:09:28;;;;;;;51.75;42.03;;;;;;;;;;2067292;28;20186;-53
2021/07/14 02:10:30;;;;;;;50.60;40.13;;;;;;;;;;2067716;28;20189;-54
2021/07/14 02:11:30;;;;;;;48.45;39.05;;;;;;;;;;2070584;28;20215;-51
2021/07/14 02:12:31;;;;;;;49.42;41.05;;;;;;;;;;2071534;28;20708;-52
2021/07/14 02:13:32;;;;;;;53.40;42.58;;;;;;;;;;2071136;28;20177;-54
2021/07/14 02:14:36;;;;;;;53.90;40.90;;;;;;;;;;2065947;28;20180;-53
2021/07/14 02:15:38;;;;;;;50.50;39.78;;;;;;;;;;2071168;28;20165;-53
2021/07/14 02:16:38;;;;;;;49.63;40.67;;;;;;;;;;2070280;28;20607;-56
2021/07/14 02:17:43;;;;;;;56.17;43.35;;;;;;;;;;2071649;28;20208;-51
2021/07/14 02:18:44;;;;;;;57.45;43.05;;;;;;;;;;2063567;28;20176;-52
2021/07/14 02:19:48;;;;;;;55.58;41.88;;;;;;;;;;2065002;28;20178;-55
2021/07/14 02:20:48;;;;;;;53.97;41.92;;;;;;;;;;2071455;28;20268;-55
2021/07/14 02:21:48;;;;;;;54.50;41.80;;;;;;;;;;2070728;28;20668;-52
2021/07/14 02:22:50;;;;;;;54.20;41.05;;;;;;;;;;2071184;28;20189;-55
2021/07/14 02:23:50;;;;;;;59.38;42.25;;;;;;;;;;2068102;28;20178;-53
2021/07/14 02:24:51;;;;;;;50.97;38.90;;;;;;;;;;2071673;28;20212;-54
2021/07/14 02:25:51;;;;;;;56.45;41.70;;;;;;;;;;2072704;28;20181;-51
2021/07/14 02:26:54;;;;;;;51.28;41.08;;;;;;;;;;2065513;28;20170;-53
2021/07/14 02:27:54;;;;;;;49.45;39.63;;;;;;;;;;2071624;28;20187;-55
2021/07/14 02:28:54;;;;;;;49.00;41.58;;;;;;;;;;2071254;28;20181;-56
2021/07/14 02:29:54;;;;;;;50.72;38.78;;;;;;;;;;2067160;28;20245;-54
2021/07/14 02:30:55;;;;;;;47.80;38.42;;;;;;;;;;2064887;28;20702;-52
2021/07/14 02:31:56;;;;;;;50.72;40.30;;;;;;;;;;2058674;28;20193;-53
2021/07/14 02:32:57;;;;;;;54.60;39.75;;;;;;;;;;2064997;28;20200;-54
2021/07/14 02:33:58;;;;;;;49.45;37.55;;;;;;;;;;2067521;28;20185;-52
2021/07/14 02:34:58;;;;;;;50.25;40.13;;;;;;;;;;2068956;28;20183;-52
2021/07/14 02:36:01;;;;;;;49.70;38.10;;;;;;;;;;2074164;28;20165;-55
2021/07/14 02:37:03;;;;;;;51.30;38.25;;;;;;;;;;2071722;28;20177;-53
2021/07/14 02:38:06;;;;;;;46.50;36.53;;;;;;;;;;2061971;28;20158;-56
2021/07/14 02:39:07;;;;;;;46.97;36.85;;;;;;;;;;2069233;28;20661;-54
2021/07/14 02:40:11;;;;;;;48.45;37.67;;;;;;;;;;2071075;28;20216;-58
2021/07/14 02:41:14;;;;;;;46.05;37.78;;;;;;;;;;2067166;28;20204;-54
2021/07/14 02:42:17;;;;;;;50.08;38.15;;;;;;;;;;2069910;28;20203;-56
2021/07/14 02:43:25;;;;;;;48.60;38.65;;;;;;;;;;2069909;28;20216;-52
2021/07/14 02:44:26;;;;;;;48.05;37.45;;;;;;;;;;2071549;28;20193;-53
2021/07/14 02:45:27;;;;;;;47.83;38.45;;;;;;;;;;2073304;28;20208;-56
2021/07/14 02:46:30;;;;;;;48.38;37.30;;;;;;;;;;2071255;28;20179;-56
2021/07/14 02:47:41;;;;;;;49.53;38.10;;;;;;;;;;2074969;28;20165;-54
2021/07/14 02:48:45;;;;;;;52.83;39.30;;;;;;;;;;2074879;28;20605;-54
2021/07/14 02:49:46;;;;;;;47.92;38.13;;;;;;;;;;2074731;28;20165;-56
2021/07/14 02:50:49;;;;;;;50.47;40.65;;;;;;;;;;2070330;28;20173;-52
2021/07/14 02:51:50;;;;;;;48.60;37.65;;;;;;;;;;2070340;28;20657;-56
2021/07/14 02:52:55;;;;;;;51.47;38.35;;;;;;;;;;2074161;28;20204;-55
2021/07/14 02:53:58;;;;;;;47.63;38.90;;;;;;;;;;2069255;28;20662;-52
2021/07/14 02:54:59;;;;;;;51.25;39.28;;;;;;;;;;2066248;28;20237;-56
2021/07/14 02:56:05;;;;;;;53.85;40.03;;;;;;;;;;2065517;28;20192;-55
2021/07/14 02:57:07;;;;;;;52.95;38.53;;;;;;;;;;2066109;28;20197;-51
2021/07/14 02:58:08;;;;;;;49.40;37.53;;;;;;;;;;2066224;28;20188;-56
2021/07/14 02:59:09;;;;;;;48.60;37.33;;;;;;;;;;2066033;28;20681;-55
2021/07/14 03:00:09;;;;;;;53.05;39.88;;;;;;;;;;2066126;28;20181;-52
2021/07/14 03:01:12;;;;;;;48.53;39.25;;;;;;;;;;2070326;28;20211;-56
2021/07/14 03:02:14;;;;;;;51.10;39.30;;;;;;;;;;2065844;28;20212;-54
2021/07/14 03:03:14;;;;;;;51.40;39.70;;;;;;;;;;2066000;28;20228;-54
2021/07/14 03:04:15;;;;;;;49.63;38.78;;;;;;;;;;2065967;28;20181;-55
2021/07/14 03:05:22;;;;;;;56.13;40.28;;;;;;;;;;2066179;28;20181;-51
2021/07/14 03:06:41;;;;;;;48.65;36.42;;;;;;;;;;2066131;28;20162;-56
2021/07/14 03:07:43;;;;;;;55.90;39.53;;;;;;;;;;2068489;28;20185;-55
2021/07/14 03:08:46;;;;;;;53.83;40.17;;;;;;;;;;2070465;28;20243;-53
2021/07/14 03:09:46;;;;;;;53.80;39.15;;;;;;;;;;2066523;28;20316;-52
2021/07/14 03:10:47;;;;;;;51.38;37.33;;;;;;;;;;2073506;28;20176;-52
2021/07/14 03:11:47;;;;;;;50.92;39.35;;;;;;;;;;2068330;28;20726;-55
2021/07/14 03:12:52;;;;;;;49.42;36.40;;;;;;;;;;2065049;28;20617;-55
2021/07/14 03:13:52;;;;;;;49.75;39.47;;;;;;;;;;2072076;28;20696;-54
2021/07/14 03:14:57;;;;;;;50.00;39.30;;;;;;;;;;2067012;28;20177;-54
2021/07/14 03:15:58;;;;;;;52.10;38.45;;;;;;;;;;2064093;28;20166;-56
2021/07/14 03:16:58;;;;;;;54.95;40.50;;;;;;;;;;2063887;28;20221;-55
2021/07/14 03:17:59;;;;;;;48.95;37.28;;;;;;;;;;2072759;28;20251;-52
2021/07/14 03:19:00;;;;;;;51.75;38.70;;;;;;;;;;2071609;28;20181;-55
2021/07/14 03:20:03;;;;;;;53.92;40.78;;;;;;;;;;2072473;28;20173;-55
2021/07/14 03:21:04;;;;;;;52.13;39.13;;;;;;;;;;2072906;28;20248;-52
2021/07/14 03:22:05;;;;;;;52.70;40.85;;;;;;;;;;2066918;28;20193;-54
2021/07/14 03:23:06;;;;;;;54.13;40.85;;;;;;;;;;2072576;28;20193;-54
2021/07/14 03:24:07;;;;;;;61.33;42.88;;;;;;;;;;2061974;28;20209;-53
2021/07/14 03:25:08;;;;;;;55.70;40.72;;;;;;;;;;2068014;28;20261;-54
2021/07/14 03:26:09;;;;;;;58.13;40.75;;;;;;;;;;2072692;28;20267;-56
2021/07/14 03:27:11;;;;;;;50.70;39.78;;;;;;;;;;2069068;28;20208;-53
2021/07/14 03:28:12;;;;;;;56.35;40.78;;;;;;;;;;2072913;28;20169;-56
2021/07/14 03:29:13;;;;;;;52.75;39.53;;;;;;;;;;2070099;28;20700;-55
2021/07/14 03:30:14;;;;;;;51.03;39.22;;;;;;;;;;2073107;28;20223;-53
2021/07/14 03:31:14;;;;;;;55.28;41.25;;;;;;;;;;2073261;28;20176;-55
2021/07/14 03:32:16;;;;;;;54.22;40.63;;;;;;;;;;2070325;28;20189;-52
2021/07/14 03:33:16;;;;;;;52.13;39.88;;;;;;;;;;2073119;28;20284;-59
2021/07/14 03:34:16;;;;;;;61.92;43.05;;;;;;;;;;2070994;28;20169;-55
2021/07/14 03:35:17;;;;;;;56.65;40.65;;;;;;;;;;2077581;28;20192;-55
2021/07/14 03:36:18;;;;;;;55.67;41.70;;;;;;;;;;2079431;28;20258;-56
2021/07/14 03:37:19;;;;;;;54.65;38.08;;;;;;;;;;2071818;28;20181;-55
2021/07/14 03:38:20;;;;;;;58.22;42.08;;;;;;;;;;2073044;28;20213;-56
2021/07/14 03:39:20;;;;;;;51.65;39.88;;;;;;;;;;2071804;28;20172;-52
2021/07/14 03:40:21;;;;;;;54.97;41.60;;;;;;;;;;2070118;28;20191;-55
2021/07/14 03:41:21;;;;;;;61.03;41.65;;;;;;;;;;2066295;28;20169;-55
2021/07/14 03:42:22;;;;;;;55.35;39.85;;;;;;;;;;2072496;28;20173;-52
2021/07/14 03:43:26;;;;;;;53.15;39.17;;;;;;;;;;2072458;28;20717;-56
2021/07/14 03:44:26;;;;;;;56.58;41.35;;;;;;;;;;2073812;28;20201;-52
2021/07/14 03:45:49;;;;;;;57.40;42.55;;;;;;;;;;2072501;28;20239;-54
2021/07/14 03:46:50;;;;;;;54.80;39.58;;;;;;;;;;2070820;28;20262;-55
2021/07/14 03:47:51;;;;;;;56.38;42.35;;;;;;;;;;2072481;28;20666;-52
2021/07/14 03:48:52;;;;;;;63.25;43.03;;;;;;;;;;2060668;28;20205;-55
2021/07/14 03:49:53;;;;;;;56.88;42.70;;;;;;;;;;2069518;28;20265;-55
2021/07/14 03:50:55;;;;;;;53.60;40.38;;;;;;;;;;2072973;28;20251;-55
2021/07/14 03:51:56;;;;;;;53.90;41.67;;;;;;;;;;2072133;28;20172;-55
2021/07/14 03:52:57;;;;;;;59.55;41.63;;;;;;;;;;2071977;28;20896;-56
2021/07/14 03:53:58;;;;;;;60.55;42.83;;;;;;;;;;2061949;28;20209;-53
2021/07/14 03:55:00;;;;;;;55.65;41.42;;;;;;;;;;2064230;28;20177;-55
2021/07/14 03:56:00;;;;;;;49.78;37.25;;;;;;;;;;2072250;28;20173;-55
2021/07/14 03:57:01;;;;;;;55.78;39.63;;;;;;;;;;2072950;28;20813;-51
2021/07/14 03:58:02;;;;;;;53.97;39.30;;;;;;;;;;2072777;28;20176;-56
2021/07/14 03:59:02;;;;;;;53.95;41.20;;;;;;;;;;2070001;28;20182;-54
2021/07/14 04:00:04;;;;;;;60.22;41.22;;;;;;;;;;2071422;28;20263;-55
2021/07/14 04:01:09;;;;;;;65.95;44.08;;;;;;;;;;2067496;28;20975;-57
2021/07/14 04:02:11;;;;;;;61.92;42.20;;;;;;;;;;2068657;28;20181;-56
2021/07/14 04:03:11;;;;;;;54.88;41.03;;;;;;;;;;2067433;28;20205;-53
2021/07/14 04:04:11;;;;;;;47.92;37.55;;;;;;;;;;2072193;28;20837;-53
2021/07/14 04:05:12;;;;;;;53.92;40.38;;;;;;;;;;2071082;28;20181;-52
2021/07/14 04:06:14;;;;;;;57.05;41.42;;;;;;;;;;2069086;28;20165;-56
2021/07/14 04:07:16;;;;;;;57.38;40.42;;;;;;;;;;2071716;28;20169;-53
2021/07/14 04:08:19;;;;;;;57.80;41.05;;;;;;;;;;2073131;28;20185;-56
2021/07/14 04:09:23;;;;;;;58.92;40.80;;;;;;;;;;2068339;28;20181;-55
2021/07/14 04:10:23;;;;;;;57.65;38.88;;;;;;;;;;2061516;28;20178;-56
2021/07/14 04:11:24;;;;;;;54.53;38.40;;;;;;;;;;2063746;28;20170;-51
2021/07/14 04:12:24;;;;;;;59.35;41.03;;;;;;;;;;2070324;28;20552;-56
2021/07/14 04:13:24;;;;;;;53.90;39.83;;;;;;;;;;2068224;28;20193;-54
2021/07/14 04:14:26;;;;;;;62.58;41.55;;;;;;;;;;2069983;28;20657;-55
2021/07/14 04:15:26;;;;;;;60.97;42.28;;;;;;;;;;2072781;28;20168;-55
2021/07/14 04:16:27;;;;;;;57.70;41.03;;;;;;;;;;2072793;28;20187;-52
2021/07/14 04:17:28;;;;;;;57.45;42.33;;;;;;;;;;2073089;28;20181;-54
2021/07/14 04:18:28;;;;;;;59.60;43.22;;;;;;;;;;2069965;28;20203;-54
2021/07/14 04:19:28;;;;;;;60.65;42.08;;;;;;;;;;2070475;28;20234;-56
2021/07/14 04:20:28;;;;;;;61.45;41.13;;;;;;;;;;2072636;28;20537;-54
2021/07/14 04:21:29;;;;;;;60.33;43.30;;;;;;;;;;2072231;28;20235;-55
2021/07/14 04:22:29;;;;;;;57.92;42.08;;;;;;;;;;2072764;28;20650;-53
2021/07/14 04:23:29;;;;;;;56.67;40.30;;;;;;;;;;2071103;28;20185;-55
2021/07/14 04:24:30;;;;;;;60.10;41.70;;;;;;;;;;2070598;28;20270;-53
2021/07/14 04:25:30;;;;;;;63.67;41.95;;;;;;;;;;2072125;28;20176;-55
2021/07/14 04:26:31;;;;;;;61.25;42.05;;;;;;;;;;2072624;28;20209;-56
2021/07/14 04:27:31;;;;;;;59.42;42.25;;;;;;;;;;2072062;28;20834;-56
2021/07/14 04:28:33;;;;;;;57.90;40.95;;;;;;;;;;2070191;28;20227;-53
2021/07/14 04:29:33;;;;;;;64.20;43.33;;;;;;;;;;2071523;28;20573;-56
2021/07/14 04:30:34;;;;;;;61.35;42.55;;;;;;;;;;2071934;28;20169;-53
2021/07/14 04:31:35;;;;;;;55.78;39.25;;;;;;;;;;2072287;28;20565;-53
2021/07/14 04:32:35;;;;;;;64.05;41.30;;;;;;;;;;2071969;28;20181;-55
2021/07/14 04:33:36;;;;;;;60.75;40.58;;;;;;;;;;2071191;28;20219;-53
2021/07/14 04:34:36;;;;;;;54.42;40.28;;;;;;;;;;2068434;28;20209;-56
2021/07/14 04:35:36;;;;;;;57.80;41.65;;;;;;;;;;2071539;28;20173;-58
2021/07/14 04:36:37;;;;;;;52.85;37.17;;;;;;;;;;2070876;28;20211;-56
2021/07/14 04:37:37;;;;;;;55.20;40.35;;;;;;;;;;2072268;28;20199;-53
2021/07/14 04:38:38;;;;;;;55.00;38.83;;;;;;;;;;2069929;28;20188;-53
2021/07/14 04:39:38;;;;;;;54.28;39.60;;;;;;;;;;2070999;28;20180;-56
2021/07/14 04:40:38;;;;;;;59.30;42.13;;;;;;;;;;2075902;28;20172;-56
2021/07/14 04:41:40;;;;;;;56.67;40.40;;;;;;;;;;2065313;28;20709;-53
2021/07/14 04:42:40;;;;;;;51.70;39.33;;;;;;;;;;2072059;28;20219;-51
2021/07/14 04:43:40;;;;;;;61.00;41.75;;;;;;;;;;2069370;28;20173;-51
2021/07/14 04:44:51;;;;;;;57.72;42.47;;;;;;;;;;2066696;28;20260;-52
2021/07/14 04:45:51;;;;;;;59.38;42.20;;;;;;;;;;2064764;28;20184;-55
2021/07/14 04:46:52;;;;;;;55.78;40.38;;;;;;;;;;2072109;28;20187;-51
2021/07/14 04:47:52;;;;;;;58.17;40.28;;;;;;;;;;2072739;28;20169;-53
2021/07/14 04:48:52;;;;;;;62.67;41.70;;;;;;;;;;2068406;28;20187;-56
2021/07/14 04:49:52;;;;;;;60.45;42.70;;;;;;;;;;2071566;28;20177;-52
2021/07/14 04:50:53;;;;;;;61.58;43.65;;;;;;;;;;2071269;28;20719;-52
2021/07/14 04:51:53;;;;;;;58.83;42.63;;;;;;;;;;2070394;28;20183;-55
2021/07/14 04:52:53;;;;;;;62.15;41.28;;;;;;;;;;2072283;28;20259;-55
2021/07/14 04:53:54;;;;;;;62.78;42.67;;;;;;;;;;2067999;28;20228;-53
2021/07/14 04:54:54;;;;;;;66.95;45.03;;;;;;;;;;2070808;28;20213;-51
2021/07/14 04:55:55;;;;;;;64.68;44.35;;;;;;;;;;2068332;28;20235;-50
2021/07/14 04:56:55;;;;;;;62.35;44.80;;;;;;;;;;2071624;28;20606;-55
2021/07/14 04:57:55;;;;;;;68.53;44.35;;;;;;;;;;2065865;28;20184;-54
2021/07/14 04:58:56;;;;;;;60.95;41.55;;;;;;;;;;2072839;28;20165;-54
2021/07/14 04:59:56;;;;;;;58.40;40.60;;;;;;;;;;2072215;28;20201;-53
2021/07/14 05:00:56;;;;;;;65.40;44.95;;;;;;;;;;2072058;28;20168;-53
2021/07/14 05:01:56;;;;;;;65.68;44.63;;;;;;;;;;2069255;28;20257;-52
2021/07/14 05:02:57;;;;;;;55.92;42.17;;;;;;;;;;2066390;28;20710;-51
2021/07/14 05:03:57;;;;;;;61.97;43.13;;;;;;;;;;2068773;28;20200;-52
2021/07/14 05:04:57;;;;;;;67.60;44.85;;;;;;;;;;2069577;28;20211;-54
2021/07/14 05:05:57;;;;;;;61.80;40.97;;;;;;;;;;2068025;28;20683;-55
2021/07/14 05:06:58;;;;;;;61.80;41.65;;;;;;;;;;2071838;28;20661;-52
2021/07/14 05:07:58;;;;;;;59.10;42.03;;;;;;;;;;2072211;28;20649;-54
2021/07/14 05:08:58;;;;;;;63.10;43.88;;;;;;;;;;2072667;28;20168;-55
2021/07/14 05:09:59;;;;;;;65.88;44.20;;;;;;;;;;2072554;28;20634;-52
2021/07/14 05:10:59;;;;;;;57.55;40.78;;;;;;;;;;2069129;28;20173;-55
2021/07/14 05:11:59;;;;;;;59.85;41.70;;;;;;;;;;2068263;28;20612;-54
2021/07/14 05:13:00;;;;;;;60.40;44.10;;;;;;;;;;2070554;28;20916;-54
2021/07/14 05:14:01;;;;;;;57.55;42.63;;;;;;;;;;2071595;28;20661;-55
2021/07/14 05:15:01;;;;;;;65.57;43.50;;;;;;;;;;2071835;28;20262;-52
2021/07/14 05:16:01;;;;;;;61.63;43.17;;;;;;;;;;2073156;28;20165;-55
2021/07/14 05:17:02;;;;;;;64.00;43.30;;;;;;;;;;2070814;28;20172;-52
2021/07/14 05:18:02;;;;;;;65.13;42.58;;;;;;;;;;2072069;28;20176;-54
2021/07/14 05:19:04;;;;;;;63.50;43.25;;;;;;;;;;2071546;28;20641;-54
2021/07/14 05:20:05;;;;;;;51.97;38.83;;;;;;;;;;2067007;28;20526;-54
2021/07/14 05:21:08;;;;;;;65.72;45.03;;;;;;;;;;2071406;28;20721;-50
2021/07/14 05:22:10;;;;;;;65.05;44.30;;;;;;;;;;2069771;28;20172;-52
2021/07/14 05:23:10;;;;;;;69.00;44.97;;;;;;;;;;2069412;28;20201;-51
2021/07/14 05:24:11;;;;;;;66.40;47.60;;;;;;;;;;2072866;28;20266;-52
2021/07/14 05:25:12;;;;;;;59.42;42.35;;;;;;;;;;2063367;28;20612;-52
2021/07/14 05:26:12;;;;;;;73.85;45.60;;;;;;;;;;2062671;28;20184;-55
2021/07/14 05:27:13;;;;;;;76.90;52.33;;;;;;;;;;2072081;28;22445;-54
2021/07/14 05:28:14;;;;;;;58.45;41.63;;;;;;;;;;2063777;28;20677;-57
2021/07/14 05:29:14;;;;;;;60.58;45.03;;;;;;;;;;2062928;28;20177;-55
2021/07/14 05:30:15;;;;;;;68.75;47.53;;;;;;;;;;2070597;28;20176;-54
2021/07/14 05:31:18;;;;;;;60.47;43.25;;;;;;;;;;2071962;28;20175;-53
2021/07/14 05:32:19;;;;;;;63.55;44.90;;;;;;;;;;2072741;28;20184;-55
2021/07/14 05:33:19;;;;;;;60.70;42.42;;;;;;;;;;2072134;28;20645;-55
2021/07/14 05:34:20;;;;;;;57.83;40.92;;;;;;;;;;2072814;28;20176;-56
2021/07/14 05:35:20;;;;;;;60.67;42.95;;;;;;;;;;2072519;28;20169;-56
2021/07/14 05:36:20;;;;;;;62.05;42.80;;;;;;;;;;2071981;28;20169;-53
2021/07/14 05:37:20;;;;;;;55.65;39.08;;;;;;;;;;2072107;28;20176;-54
2021/07/14 05:38:21;;;;;;;57.33;40.15;;;;;;;;;;2071378;28;20608;-59
2021/07/14 05:39:21;;;;;;;55.13;39.53;;;;;;;;;;2063733;28;20334;-52
2021/07/14 05:40:22;;;;;;;56.08;41.08;;;;;;;;;;2071545;28;20173;-52
2021/07/14 05:41:22;;;;;;;58.22;40.08;;;;;;;;;;2069466;28;20169;-54
2021/07/14 05:42:22;;;;;;;51.28;39.00;;;;;;;;;;2070057;28;20268;-56
2021/07/14 05:43:23;;;;;;;61.60;41.83;;;;;;;;;;2071525;28;20284;-55
2021/07/14 05:44:23;;;;;;;58.70;42.30;;;;;;;;;;2069932;28;20188;-56
2021/07/14 05:45:26;;;;;;;55.75;40.67;;;;;;;;;;2069393;28;20189;-55
2021/07/14 05:46:26;;;;;;;56.97;40.85;;;;;;;;;;2071883;28;20263;-57
2021/07/14 05:47:27;;;;;;;49.95;39.00;;;;;;;;;;2058118;28;20182;-55
2021/07/14 05:48:27;;;;;;;55.53;39.80;;;;;;;;;;2062813;28;20166;-56
2021/07/14 05:49:27;;;;;;;53.25;39.55;;;;;;;;;;2069338;28;20578;-55
2021/07/14 05:50:28;;;;;;;53.15;38.40;;;;;;;;;;2071118;28;20753;-54
2021/07/14 05:51:29;;;;;;;56.22;40.15;;;;;;;;;;2072192;28;20173;-54
2021/07/14 05:52:29;;;;;;;56.15;42.05;;;;;;;;;;2070328;28;20223;-56
2021/07/14 05:53:30;;;;;;;58.67;41.83;;;;;;;;;;2070004;28;20685;-57
2021/07/14 05:54:30;;;;;;;51.92;41.30;;;;;;;;;;2067337;28;20797;-57
2021/07/14 05:55:30;;;;;;;59.17;40.35;;;;;;;;;;2068962;28;20181;-58
2021/07/14 05:56:31;;;;;;;51.97;38.80;;;;;;;;;;2061012;28;20268;-54
2021/07/14 05:57:32;;;;;;;53.70;40.50;;;;;;;;;;2069196;28;20207;-58
2021/07/14 05:58:33;;;;;;;56.47;41.83;;;;;;;;;;2061000;28;20177;-58
2021/07/14 05:59:33;;;;;;;53.95;37.92;;;;;;;;;;2062412;28;20697;-58
2021/07/14 06:00:33;;;;;;;54.50;39.78;;;;;;;;;;2073029;28;20192;-56
2021/07/14 06:01:34;;;;;;;53.97;38.28;;;;;;;;;;2070758;28;20192;-58
2021/07/14 06:02:34;;;;;;;49.17;35.50;;;;;;;;;;2071139;28;20271;-56
2021/07/14 06:03:34;;;;;;;51.55;37.35;;;;;;;;;;2066744;28;20195;-57
2021/07/14 06:04:34;;;;;;;52.83;40.13;;;;;;;;;;2074314;28;20203;-59
2021/07/14 06:05:35;;;;;;;53.17;37.97;;;;;;;;;;2072468;28;20638;-60
2021/07/14 06:06:36;;;;;;;55.47;41.15;;;;;;;;;;2072735;28;20176;-60
2021/07/14 06:07:36;;;;;;;50.13;40.92;;;;;;;;;;2072263;28;20532;-56
2021/07/14 06:08:36;;;;;;;53.97;38.50;;;;;;;;;;2073251;28;20184;-57
2021/07/14 06:09:39;;;;;;;55.72;44.25;;;;;;;;;;2073270;28;20650;-55